createdAt,value
2018-05-01T00:01:23.699Z,99550.56
2018-05-01T00:03:52.049Z,99551.73
2018-05-01T00:06:20.360Z,99560.17
2018-05-01T00:08:48.713Z,99561.69
2018-05-01T00:11:17.033Z,99566.45
2018-05-01T00:13:45.367Z,99562.73
2018-05-01T00:16:13.689Z,99557.34
2018-05-01T00:18:42.024Z,99548.59
2018-05-01T00:21:10.363Z,99549.99
2018-05-01T00:23:38.757Z,99564.05
2018-05-01T00:26:07.208Z,99552.33
2018-05-01T00:28:35.532Z,99573.77
2018-05-01T00:31:03.868Z,99552.91
2018-05-01T00:33:32.179Z,99556.08
2018-05-01T00:36:00.521Z,99567.77
2018-05-01T00:38:28.835Z,99567.90
2018-05-01T00:40:57.175Z,99563.96
2018-05-01T00:43:25.492Z,99584.36
2018-05-01T00:45:53.836Z,99577.36
2018-05-01T00:48:22.149Z,99590.56
2018-05-01T00:50:50.489Z,99582.53
2018-05-01T00:53:18.799Z,99595.70
2018-05-01T00:55:47.137Z,99581.37
2018-05-01T00:58:15.448Z,99597.05
2018-05-01T01:00:43.780Z,99596.84
2018-05-01T01:03:12.099Z,99589.26
2018-05-01T01:05:40.432Z,99602.10
2018-05-01T01:08:08.747Z,99616.88
2018-05-01T01:10:37.083Z,99616.05
2018-05-01T01:13:05.409Z,99617.03
2018-05-01T01:15:33.752Z,99617.59
2018-05-01T01:18:02.073Z,99620.77
2018-05-01T01:20:30.424Z,99623.64
2018-05-01T01:22:58.760Z,99619.06
2018-05-01T01:25:27.109Z,99628.93
2018-05-01T01:27:55.428Z,99615.14
2018-05-01T01:30:23.771Z,99623.16
2018-05-01T01:32:52.867Z,99632.36
2018-05-01T01:35:20.648Z,99628.14
2018-05-01T01:37:48.444Z,99629.45
2018-05-01T01:40:16.224Z,99633.70
2018-05-01T01:42:44.025Z,99645.73
2018-05-01T01:45:11.804Z,99654.43
2018-05-01T01:47:39.597Z,99656.88
2018-05-01T01:50:07.380Z,99659.81
2018-05-01T01:52:35.185Z,99670.17
2018-05-01T01:55:02.969Z,99668.95
2018-05-01T01:57:30.769Z,99673.36
2018-05-01T01:59:58.560Z,99669.05
2018-05-01T02:02:26.392Z,99671.47
2018-05-01T02:04:54.158Z,99664.16
2018-05-01T02:07:21.949Z,99671.63
2018-05-01T02:09:49.719Z,99674.38
2018-05-01T02:12:17.516Z,99680.23
2018-05-01T02:14:46.692Z,99667.75
2018-05-01T02:17:14.496Z,99681.52
2018-05-01T02:19:42.276Z,99685.38
2018-05-01T02:22:10.081Z,99691.66
2018-05-01T02:24:37.859Z,99666.30
2018-05-01T02:27:05.673Z,99681.29
2018-05-01T02:29:33.444Z,99683.72
2018-05-01T02:32:01.256Z,99693.02
2018-05-01T02:34:29.025Z,99695.00
2018-05-01T02:36:56.804Z,99696.34
2018-05-01T02:39:24.596Z,99693.61
2018-05-01T02:41:52.373Z,99701.34
2018-05-01T02:44:20.173Z,99708.75
2018-05-01T02:46:47.945Z,99709.91
2018-05-01T02:49:15.752Z,99712.72
2018-05-01T02:51:43.533Z,99714.34
2018-05-01T02:54:11.324Z,99710.25
2018-05-01T02:56:39.105Z,99720.76
2018-05-01T02:59:06.904Z,99711.02
2018-05-01T03:01:34.677Z,99724.93
2018-05-01T03:04:02.477Z,99724.97
2018-05-01T03:06:30.256Z,99729.62
2018-05-01T03:08:58.056Z,99733.08
2018-05-01T03:11:25.831Z,99740.34
2018-05-01T03:13:53.624Z,99741.20
2018-05-01T03:16:21.507Z,99742.13
2018-05-01T03:18:49.281Z,99750.03
2018-05-01T03:21:17.052Z,99750.34
2018-05-01T03:23:44.850Z,99758.42
2018-05-01T03:26:12.625Z,99753.44
2018-05-01T03:28:40.420Z,99748.91
2018-05-01T03:31:08.195Z,99750.44
2018-05-01T03:33:35.983Z,99756.62
2018-05-01T03:36:03.759Z,99750.96
2018-05-01T03:38:31.556Z,99752.67
2018-05-01T03:40:59.324Z,99747.22
2018-05-01T03:43:27.096Z,99747.17
2018-05-01T03:45:54.885Z,99750.71
2018-05-01T03:48:22.656Z,99759.89
2018-05-01T03:50:50.453Z,99747.73
2018-05-01T03:53:18.224Z,99741.73
2018-05-01T03:55:46.064Z,99753.80
2018-05-01T03:58:13.797Z,99754.68
2018-05-01T04:00:41.589Z,99753.39
2018-05-01T04:03:09.361Z,99756.81
2018-05-01T04:05:37.157Z,99742.75
2018-05-01T04:08:04.929Z,99757.84
2018-05-01T04:10:32.721Z,99750.89
2018-05-01T04:13:00.492Z,99755.72
2018-05-01T04:15:28.284Z,99769.84
2018-05-01T04:17:56.053Z,99768.92
2018-05-01T04:20:23.840Z,99771.99
2018-05-01T04:22:51.611Z,99769.41
2018-05-01T04:25:19.467Z,99778.87
2018-05-01T04:27:47.164Z,99780.16
2018-05-01T04:30:14.964Z,99771.75
2018-05-01T04:32:42.736Z,99769.62
2018-05-01T04:35:10.525Z,99768.34
2018-05-01T04:37:38.305Z,99786.47
2018-05-01T04:40:06.083Z,99785.16
2018-05-01T04:42:33.883Z,99786.81
2018-05-01T04:45:01.653Z,99779.97
2018-05-01T04:47:29.454Z,99778.72
2018-05-01T04:49:57.212Z,99791.59
2018-05-01T04:52:25.005Z,99774.48
2018-05-01T04:54:52.776Z,99790.66
2018-05-01T04:57:20.569Z,99785.61
2018-05-01T04:59:48.340Z,99799.73
2018-05-01T05:02:16.137Z,99792.73
2018-05-01T05:04:43.909Z,99790.20
2018-05-01T05:07:11.708Z,99805.52
2018-05-01T05:09:39.477Z,99817.11
2018-05-01T05:12:07.271Z,99822.30
2018-05-01T05:14:35.040Z,99808.41
2018-05-01T05:17:02.834Z,99819.80
2018-05-01T05:19:30.601Z,99812.43
2018-05-01T05:21:58.405Z,99826.35
2018-05-01T05:24:26.176Z,99820.59
2018-05-01T05:26:53.965Z,99817.11
2018-05-01T05:29:21.736Z,99838.36
2018-05-01T05:31:49.532Z,99834.80
2018-05-01T05:34:17.305Z,99832.15
2018-05-01T05:36:45.088Z,99842.72
2018-05-01T05:39:12.876Z,99848.39
2018-05-01T05:41:40.654Z,99840.42
2018-05-01T05:44:08.436Z,99845.19
2018-05-01T05:46:36.212Z,99855.34
2018-05-01T05:49:04.004Z,99857.92
2018-05-01T05:51:31.784Z,99853.77
2018-05-01T05:53:59.579Z,99857.25
2018-05-01T05:56:27.352Z,99876.02
2018-05-01T05:58:55.140Z,99866.53
2018-05-01T06:01:22.908Z,99872.55
2018-05-01T06:03:50.700Z,99881.06
2018-05-01T06:06:18.474Z,99881.41
2018-05-01T06:08:46.262Z,99882.34
2018-05-01T06:11:14.029Z,99879.98
2018-05-01T06:13:41.838Z,99877.22
2018-05-01T06:16:09.600Z,99892.05
2018-05-01T06:18:37.392Z,99901.41
2018-05-01T06:21:05.164Z,99895.02
2018-05-01T06:23:32.958Z,99903.23
2018-05-01T06:26:00.733Z,99911.81
2018-05-01T06:28:28.524Z,99904.55
2018-05-01T06:30:56.290Z,99914.72
2018-05-01T06:33:24.085Z,99911.27
2018-05-01T06:35:51.857Z,99909.05
2018-05-01T06:38:19.623Z,99902.61
2018-05-01T06:40:47.416Z,99925.71
2018-05-01T06:43:15.181Z,99933.12
2018-05-01T06:45:42.975Z,99946.28
2018-05-01T06:48:10.740Z,99942.48
2018-05-01T06:50:38.540Z,99943.23
2018-05-01T06:53:06.300Z,99948.05
2018-05-01T06:55:34.090Z,99952.37
2018-05-01T06:58:01.907Z,99952.25
2018-05-01T07:00:29.677Z,99957.40
2018-05-01T07:02:57.444Z,99954.94
2018-05-01T07:05:25.240Z,99954.08
2018-05-01T07:07:53.012Z,99965.44
2018-05-01T07:10:20.888Z,99959.53
2018-05-01T07:12:48.584Z,99973.92
2018-05-01T07:15:16.368Z,99965.84
2018-05-01T07:17:44.136Z,99965.50
2018-05-01T07:20:11.907Z,99980.03
2018-05-01T07:22:39.708Z,99977.41
2018-05-01T07:25:07.485Z,99993.92
2018-05-01T07:27:35.345Z,99987.89
2018-05-01T07:30:03.061Z,99993.94
2018-05-01T07:32:30.865Z,100002.00
2018-05-01T07:34:58.642Z,100008.82
2018-05-01T07:37:26.456Z,100009.14
2018-05-01T07:39:54.228Z,100008.29
2018-05-01T07:42:22.029Z,100018.80
2018-05-01T07:44:49.804Z,100024.77
2018-05-01T07:47:17.604Z,100027.86
2018-05-01T07:49:45.385Z,100027.66
2018-05-01T07:52:13.193Z,100031.34
2018-05-01T07:54:41.631Z,100033.81
2018-05-01T07:57:09.424Z,100033.54
2018-05-01T07:59:37.210Z,100042.52
2018-05-01T08:02:05.095Z,100044.24
2018-05-01T08:04:32.874Z,100050.99
2018-05-01T08:07:00.723Z,100048.01
2018-05-01T08:09:28.452Z,100061.20
2018-05-01T08:11:56.296Z,100066.00
2018-05-01T08:14:24.077Z,100070.25
2018-05-01T08:16:51.862Z,100077.91
2018-05-01T08:19:19.662Z,100091.48
2018-05-01T08:21:47.441Z,100089.77
2018-05-01T08:24:15.344Z,100094.74
2018-05-01T08:26:43.309Z,100095.91
2018-05-01T08:29:11.130Z,100106.49
2018-05-01T08:31:39.033Z,100113.79
2018-05-01T08:34:06.847Z,100115.65
2018-05-01T08:36:34.639Z,100118.56
2018-05-01T08:39:02.468Z,100118.89
2018-05-01T08:41:30.280Z,100125.09
2018-05-01T08:43:58.088Z,100134.08
2018-05-01T08:46:25.874Z,100123.36
2018-05-01T08:48:53.673Z,100136.42
2018-05-01T08:51:21.452Z,100133.53
2018-05-01T08:53:49.493Z,100133.17
2018-05-01T08:56:17.281Z,100140.41
2018-05-01T08:58:45.668Z,100144.95
2018-05-01T09:01:13.508Z,100142.37
2018-05-01T09:03:42.018Z,100161.96
2018-05-01T09:06:09.813Z,100162.45
2018-05-01T09:08:37.634Z,100166.51
2018-05-01T09:11:05.509Z,100168.11
2018-05-01T09:13:33.322Z,100179.19
2018-05-01T09:16:01.109Z,100185.46
2018-05-01T09:21:13.096Z,100177.36
2018-05-01T09:23:40.909Z,100193.38
2018-05-01T09:26:09.496Z,100194.01
2018-05-01T09:28:37.321Z,100196.44
2018-05-01T09:31:05.121Z,100188.77
2018-05-01T09:33:32.916Z,100199.86
2018-05-01T09:36:00.743Z,100207.42
2018-05-01T09:38:28.533Z,100213.24
2018-05-01T09:40:56.370Z,100219.98
2018-05-01T09:43:24.544Z,100214.88
2018-05-01T09:45:52.365Z,100219.55
2018-05-01T09:48:20.167Z,100219.91
2018-05-01T09:50:47.989Z,100225.36
2018-05-01T09:53:16.346Z,100233.26
2018-05-01T09:55:44.693Z,100237.95
2018-05-01T09:58:13.037Z,100239.20
2018-05-01T10:00:41.384Z,100242.93
2018-05-01T10:03:10.540Z,100251.31
2018-05-01T10:05:38.897Z,100261.37
2018-05-01T10:08:07.228Z,100259.12
2018-05-01T10:10:35.580Z,100255.95
2018-05-01T10:13:03.916Z,100260.56
2018-05-01T10:15:32.267Z,100264.19
2018-05-01T10:18:00.604Z,100257.78
2018-05-01T10:20:28.956Z,100267.78
2018-05-01T10:22:59.228Z,100270.49
2018-05-01T10:25:27.584Z,100265.04
2018-05-01T10:27:55.911Z,100270.13
2018-05-01T10:30:24.264Z,100273.30
2018-05-01T10:32:52.605Z,100281.47
2018-05-01T10:35:21.353Z,100279.51
2018-05-01T10:37:50.043Z,100278.56
2018-05-01T10:40:18.611Z,100286.73
2018-05-01T10:42:48.419Z,100291.70
2018-05-01T10:45:17.173Z,100295.16
2018-05-01T10:47:45.853Z,100294.66
2018-05-01T10:50:14.294Z,100285.44
2018-05-01T10:52:42.620Z,100302.08
2018-05-01T10:55:10.973Z,100312.70
2018-05-01T10:57:39.310Z,100323.53
2018-05-01T11:00:07.669Z,100330.37
2018-05-01T11:02:36.025Z,100333.37
2018-05-01T11:05:04.369Z,100332.14
2018-05-01T11:07:32.704Z,100336.02
2018-05-01T11:10:01.057Z,100346.95
2018-05-01T11:12:29.398Z,100348.94
2018-05-01T11:14:57.761Z,100351.55
2018-05-01T11:17:26.122Z,100356.59
2018-05-01T11:19:54.436Z,100362.98
2018-05-01T11:22:23.137Z,100359.23
2018-05-01T11:24:51.497Z,100352.57
2018-05-01T11:27:19.824Z,100349.47
2018-05-01T11:29:48.195Z,100350.98
2018-05-01T11:32:16.517Z,100358.17
2018-05-01T11:34:44.881Z,100360.43
2018-05-01T11:37:13.210Z,100359.67
2018-05-01T11:39:41.536Z,100363.88
2018-05-01T11:42:10.936Z,100364.75
2018-05-01T11:44:39.275Z,100365.51
2018-05-01T11:47:07.633Z,100373.01
2018-05-01T11:49:35.980Z,100370.54
2018-05-01T11:52:04.329Z,100375.58
2018-05-01T11:54:32.659Z,100380.30
2018-05-01T11:57:01.017Z,100375.87
2018-05-01T11:59:29.347Z,100375.64
2018-05-01T12:01:58.461Z,100386.00
2018-05-01T12:04:26.799Z,100396.55
2018-05-01T12:06:55.149Z,100404.27
2018-05-01T12:09:23.494Z,100398.75
2018-05-01T12:11:51.857Z,100418.91
2018-05-01T12:14:20.203Z,100418.27
2018-05-01T12:16:48.548Z,100410.58
2018-05-01T12:19:16.893Z,100405.56
2018-05-01T12:21:45.305Z,100399.78
2018-05-01T12:24:13.657Z,100420.19
2018-05-01T12:26:42.005Z,100422.80
2018-05-01T12:29:10.336Z,100424.48
2018-05-01T12:31:38.689Z,100433.27
2018-05-01T12:34:07.019Z,100440.34
2018-05-01T12:36:35.474Z,100437.23
2018-05-01T12:39:03.828Z,100442.39
2018-05-01T12:41:33.076Z,100442.41
2018-05-01T12:44:01.422Z,100435.58
2018-05-01T12:46:29.779Z,100444.13
2018-05-01T12:48:58.108Z,100439.53
2018-05-01T12:51:26.592Z,100436.92
2018-05-01T12:53:55.049Z,100440.30
2018-05-01T12:56:23.392Z,100452.51
2018-05-01T12:58:51.728Z,100451.38
2018-05-01T13:01:20.086Z,100458.66
2018-05-01T13:03:48.416Z,100463.77
2018-05-01T13:06:16.773Z,100457.02
2018-05-01T13:08:45.106Z,100454.97
2018-05-01T13:11:13.481Z,100459.95
2018-05-01T13:13:41.893Z,100472.75
2018-05-01T13:16:10.165Z,100464.19
2018-05-01T13:18:38.501Z,100472.62
2018-05-01T13:21:07.304Z,100460.37
2018-05-01T13:23:35.645Z,100460.10
2018-05-01T13:26:04.005Z,100458.55
2018-05-01T13:28:32.345Z,100456.42
2018-05-01T13:31:00.693Z,100457.11
2018-05-01T13:33:29.025Z,100459.45
2018-05-01T13:35:57.369Z,100459.97
2018-05-01T13:38:25.713Z,100448.62
2018-05-01T13:40:54.040Z,100459.23
2018-05-01T13:43:22.406Z,100469.99
2018-05-01T13:45:50.769Z,100461.25
2018-05-01T13:48:19.100Z,100465.00
2018-05-01T13:50:47.441Z,100459.11
2018-05-01T13:53:15.797Z,100465.28
2018-05-01T13:55:44.129Z,100468.10
2018-05-01T13:58:12.501Z,100474.92
2018-05-01T14:00:40.824Z,100477.91
2018-05-01T14:03:09.173Z,100469.02
2018-05-01T14:05:37.582Z,100468.00
2018-05-01T14:08:05.924Z,100470.80
2018-05-01T14:10:34.260Z,100478.29
2018-05-01T14:13:04.512Z,100489.27
2018-05-01T14:15:32.848Z,100478.34
2018-05-01T14:18:01.208Z,100476.50
2018-05-01T14:20:29.540Z,100483.22
2018-05-01T14:22:57.901Z,100485.61
2018-05-01T14:25:26.299Z,100493.38
2018-05-01T14:27:54.604Z,100499.16
2018-05-01T14:30:22.940Z,100505.61
2018-05-01T14:32:53.052Z,100505.85
2018-05-01T14:35:21.382Z,100502.09
2018-05-01T14:37:49.738Z,100508.66
2018-05-01T14:40:18.069Z,100513.12
2018-05-01T14:42:46.415Z,100519.72
2018-05-01T14:45:14.740Z,100513.02
2018-05-01T14:47:43.100Z,100508.86
2018-05-01T14:50:11.438Z,100520.94
2018-05-01T14:52:40.915Z,100524.00
2018-05-01T14:55:09.482Z,100525.14
2018-05-01T14:57:37.849Z,100520.53
2018-05-01T15:00:06.181Z,100526.79
2018-05-01T15:02:34.550Z,100533.09
2018-05-01T15:05:02.877Z,100539.98
2018-05-01T15:07:31.238Z,100536.06
2018-05-01T15:09:59.569Z,100533.89
2018-05-01T15:12:29.454Z,100532.72
2018-05-01T15:14:57.789Z,100539.27
2018-05-01T15:17:26.158Z,100544.36
2018-05-01T15:19:54.489Z,100546.22
2018-05-01T15:22:22.848Z,100557.53
2018-05-01T15:24:51.181Z,100551.06
2018-05-01T15:27:19.541Z,100552.80
2018-05-01T15:29:47.881Z,100553.31
2018-05-01T15:32:18.261Z,100553.39
2018-05-01T15:34:46.570Z,100548.66
2018-05-01T15:37:14.916Z,100562.02
2018-05-01T15:39:43.485Z,100571.30
2018-05-01T15:42:11.847Z,100561.66
2018-05-01T15:44:40.187Z,100574.69
2018-05-01T15:47:08.519Z,100575.10
2018-05-01T15:49:36.868Z,100573.53
2018-05-01T15:52:06.096Z,100568.10
2018-05-01T15:54:34.442Z,100570.90
2018-05-01T15:57:02.776Z,100584.66
2018-05-01T15:59:31.137Z,100582.98
2018-05-01T16:01:59.468Z,100583.28
2018-05-01T16:04:27.826Z,100584.62
2018-05-01T16:06:56.156Z,100592.36
2018-05-01T16:09:24.531Z,100589.86
2018-05-01T16:11:53.792Z,100586.72
2018-05-01T16:14:22.288Z,100593.70
2018-05-01T16:16:50.495Z,100593.66
2018-05-01T16:19:18.849Z,100595.69
2018-05-01T16:21:47.178Z,100601.71
2018-05-01T16:24:15.540Z,100604.59
2018-05-01T16:26:43.868Z,100600.40
2018-05-01T16:29:12.228Z,100607.77
2018-05-01T16:31:41.510Z,100603.75
2018-05-01T16:34:09.912Z,100597.33
2018-05-01T16:36:38.250Z,100602.78
2018-05-01T16:39:06.607Z,100603.61
2018-05-01T16:41:34.945Z,100606.23
2018-05-01T16:44:03.296Z,100606.86
2018-05-01T16:46:31.649Z,100606.17
2018-05-01T16:49:00.005Z,100597.15
2018-05-01T16:51:28.345Z,100608.91
2018-05-01T16:53:56.692Z,100609.69
2018-05-01T16:56:25.021Z,100618.50
2018-05-01T16:58:53.392Z,100614.80
2018-05-01T17:01:21.722Z,100607.88
2018-05-01T17:03:50.080Z,100615.23
2018-05-01T17:06:18.414Z,100613.81
2018-05-01T17:08:46.767Z,100627.20
2018-05-01T17:11:15.108Z,100627.13
2018-05-01T17:13:43.476Z,100624.58
2018-05-01T17:16:11.887Z,100626.49
2018-05-01T17:18:40.243Z,100632.47
2018-05-01T17:21:08.577Z,100634.88
2018-05-01T17:23:36.975Z,100636.95
2018-05-01T17:26:05.301Z,100644.55
2018-05-01T17:28:33.674Z,100641.51
2018-05-01T17:31:02.021Z,100641.95
2018-05-01T17:33:30.372Z,100645.65
2018-05-01T17:35:58.700Z,100656.99
2018-05-01T17:38:27.061Z,100654.75
2018-05-01T17:40:55.401Z,100665.81
2018-05-01T17:43:23.820Z,100668.07
2018-05-01T17:45:52.141Z,100673.77
2018-05-01T17:48:21.144Z,100666.91
2018-05-01T17:50:49.472Z,100658.95
2018-05-01T17:53:17.978Z,100660.56
2018-05-01T17:55:46.366Z,100663.26
2018-05-01T17:58:14.692Z,100665.11
2018-05-01T18:00:43.048Z,100670.27
2018-05-01T18:03:11.393Z,100675.67
2018-05-01T18:05:39.749Z,100688.81
2018-05-01T18:08:08.822Z,100697.48
2018-05-01T18:10:37.172Z,100698.57
2018-05-01T18:13:05.508Z,100700.02
2018-05-01T18:15:34.060Z,100695.53
2018-05-01T18:18:02.437Z,100702.11
2018-05-01T18:20:30.783Z,100714.55
2018-05-01T18:22:59.118Z,100711.64
2018-05-01T18:25:27.561Z,100712.78
2018-05-01T18:27:56.591Z,100710.03
2018-05-01T18:30:24.949Z,100724.43
2018-05-01T18:32:53.286Z,100720.67
2018-05-01T18:35:21.646Z,100719.16
2018-05-01T18:37:49.980Z,100711.02
2018-05-01T18:40:18.337Z,100713.28
2018-05-01T18:42:46.689Z,100716.93
2018-05-01T18:45:15.058Z,100731.27
2018-05-01T18:47:44.093Z,100725.05
2018-05-01T18:50:12.462Z,100744.77
2018-05-01T18:52:40.790Z,100742.80
2018-05-01T18:55:09.220Z,100746.37
2018-05-01T18:57:37.544Z,100753.24
2018-05-01T19:00:05.910Z,100746.20
2018-05-01T19:02:34.236Z,100759.61
2018-05-01T19:05:02.599Z,100762.77
2018-05-01T19:07:31.893Z,100767.25
2018-05-01T19:10:00.486Z,100772.59
2018-05-01T19:12:28.901Z,100782.20
2018-05-01T19:14:57.256Z,100784.19
2018-05-01T19:17:25.596Z,100789.55
2018-05-01T19:19:53.967Z,100791.00
2018-05-01T19:22:22.294Z,100789.47
2018-05-01T19:24:50.695Z,100798.31
2018-05-01T19:27:19.422Z,100807.16
2018-05-01T19:29:47.960Z,100806.17
2018-05-01T19:32:16.287Z,100807.28
2018-05-01T19:34:44.637Z,100814.40
2018-05-01T19:37:13.179Z,100808.97
2018-05-01T19:39:41.838Z,100808.69
2018-05-01T19:42:10.092Z,100822.49
2018-05-01T19:44:38.449Z,100829.50
2018-05-01T19:47:08.008Z,100831.34
2018-05-01T19:49:36.357Z,100829.72
2018-05-01T19:52:04.692Z,100829.83
2018-05-01T19:54:33.057Z,100824.06
2018-05-01T19:57:01.389Z,100827.56
2018-05-01T19:59:29.716Z,100828.92
2018-05-01T20:01:58.147Z,100831.06
2018-05-01T20:04:26.471Z,100828.62
2018-05-01T20:06:55.665Z,100822.87
2018-05-01T20:09:23.988Z,100825.58
2018-05-01T20:11:52.345Z,100840.20
2018-05-01T20:14:20.689Z,100843.77
2018-05-01T20:16:49.149Z,100841.00
2018-05-01T20:19:17.492Z,100840.84
2018-05-01T20:21:45.889Z,100843.62
2018-05-01T20:24:14.216Z,100848.41
2018-05-01T20:26:43.786Z,100847.17
2018-05-01T20:29:12.142Z,100852.00
2018-05-01T20:31:40.573Z,100853.36
2018-05-01T20:34:11.757Z,100856.12
2018-05-01T20:36:40.153Z,100848.59
2018-05-01T20:39:08.817Z,100846.20
2018-05-01T20:41:37.178Z,100842.98
2018-05-01T20:44:05.544Z,100838.11
2018-05-01T20:46:33.898Z,100842.53
2018-05-01T20:49:03.030Z,100849.07
2018-05-01T20:51:31.388Z,100846.61
2018-05-01T20:53:59.716Z,100842.02
2018-05-01T20:56:28.076Z,100851.91
2018-05-01T20:58:56.405Z,100849.30
2018-05-01T21:01:24.757Z,100844.64
2018-05-01T21:03:53.083Z,100848.48
2018-05-01T21:06:21.443Z,100851.00
2018-05-01T21:08:50.737Z,100844.22
2018-05-01T21:11:19.098Z,100838.40
2018-05-01T21:13:47.425Z,100849.55
2018-05-01T21:16:15.779Z,100856.48
2018-05-01T21:18:44.113Z,100862.55
2018-05-01T21:21:12.469Z,100856.16
2018-05-01T21:23:40.800Z,100865.97
2018-05-01T21:26:09.153Z,100869.02
2018-05-01T21:28:38.271Z,100863.23
2018-05-01T21:31:06.621Z,100865.42
2018-05-01T21:33:34.952Z,100858.73
2018-05-01T21:36:03.313Z,100863.09
2018-05-01T21:38:31.648Z,100872.09
2018-05-01T21:41:00.013Z,100875.08
2018-05-01T21:43:28.350Z,100875.16
2018-05-01T21:45:56.710Z,100879.05
2018-05-01T21:48:26.016Z,100872.69
2018-05-01T21:50:54.369Z,100880.79
2018-05-01T21:53:22.709Z,100881.70
2018-05-01T21:55:51.070Z,100895.41
2018-05-01T21:58:19.400Z,100906.49
2018-05-01T22:00:47.748Z,100908.35
2018-05-01T22:03:16.076Z,100903.70
2018-05-01T22:05:44.406Z,100898.59
2018-05-01T22:08:12.758Z,100890.11
2018-05-01T22:10:41.089Z,100891.89
2018-05-01T22:13:09.436Z,100898.42
2018-05-01T22:15:37.832Z,100902.39
2018-05-01T22:18:06.120Z,100901.18
2018-05-01T22:20:34.451Z,100900.36
2018-05-01T22:23:02.805Z,100901.70
2018-05-01T22:25:31.137Z,100900.39
2018-05-01T22:28:00.381Z,100896.98
2018-05-01T22:30:28.700Z,100895.31
2018-05-01T22:32:57.044Z,100894.03
2018-05-01T22:35:25.377Z,100899.57
2018-05-01T22:37:53.733Z,100899.63
2018-05-01T22:40:22.062Z,100890.72
2018-05-01T22:42:50.417Z,100896.74
2018-05-01T22:45:18.753Z,100894.64
2018-05-01T22:47:47.108Z,100895.13
2018-05-01T22:50:15.440Z,100893.83
2018-05-01T22:52:43.781Z,100889.99
2018-05-01T22:55:12.106Z,100887.90
2018-05-01T22:57:40.449Z,100884.48
2018-05-01T23:00:08.772Z,100890.08
2018-05-01T23:02:36.837Z,100887.95
2018-05-01T23:05:05.156Z,100893.51
2018-05-01T23:07:33.497Z,100889.28
2018-05-01T23:10:01.813Z,100892.26
2018-05-01T23:12:30.153Z,100891.41
2018-05-01T23:14:58.481Z,100895.29
2018-05-01T23:17:26.822Z,100894.84
2018-05-01T23:19:55.141Z,100899.94
2018-05-01T23:22:23.486Z,100894.86
2018-05-01T23:24:51.804Z,100892.76
2018-05-01T23:27:20.148Z,100895.38
2018-05-01T23:29:48.477Z,100895.88
2018-05-01T23:32:16.826Z,100888.70
2018-05-01T23:34:45.171Z,100889.99
2018-05-01T23:37:13.497Z,100891.34
2018-05-01T23:39:41.820Z,100888.80
2018-05-01T23:42:10.169Z,100887.13
2018-05-01T23:44:38.489Z,100879.94
2018-05-01T23:47:06.824Z,100887.16
2018-05-01T23:49:35.136Z,100885.02
2018-05-01T23:52:03.481Z,100882.88
2018-05-01T23:54:31.792Z,100884.98
2018-05-01T23:57:00.142Z,100885.83
2018-05-01T23:59:28.465Z,100875.66
